sensor_id;sensor_type;location;lat;lon;timestamp;pressure;altitude;pressure_sealevel;temperature;humidity
30339;BME280;795;49.296;11.348;2023-05-09T00:01:25;96753.22;;;12.76;95.55
30339;BME280;795;49.296;11.348;2023-05-09T00:03:57;96751.38;;;12.69;96.11
30339;BME280;795;49.296;11.348;2023-05-09T00:06:25;96670.25;;;12.17;96.99
30339;BME280;795;49.296;11.348;2023-05-09T00:08:54;96759.47;;;12.60;99.69
30339;BME280;795;49.296;11.348;2023-05-09T00:11:21;96745.88;;;12.46;100.00
30339;BME280;795;49.296;11.348;2023-05-09T00:13:49;96736.66;;;12.32;100.00
30339;BME280;795;49.296;11.348;2023-05-09T00:16:17;96751.97;;;12.40;100.00
30339;BME280;795;49.296;11.348;2023-05-09T00:18:46;96705.09;;;12.10;100.00
30339;BME280;795;49.296;11.348;2023-05-09T00:21:13;96755.81;;;12.45;100.00
30339;BME280;795;49.296;11.348;2023-05-09T00:23:40;96756.31;;;12.49;100.00
30339;BME280;795;49.296;11.348;2023-05-09T00:26:08;96755.34;;;12.34;100.00
30339;BME280;795;49.296;11.348;2023-05-09T00:28:35;96771.31;;;12.35;100.00
30339;BME280;795;49.296;11.348;2023-05-09T00:31:03;96748.75;;;12.36;100.00
30339;BME280;795;49.296;11.348;2023-05-09T00:33:31;96756.38;;;12.33;100.00
30339;BME280;795;49.296;11.348;2023-05-09T00:35:58;96748.56;;;12.54;100.00
30339;BME280;795;49.296;11.348;2023-05-09T00:38:25;96702.84;;;12.30;100.00
30339;BME280;795;49.296;11.348;2023-05-09T00:40:52;96743.66;;;12.57;100.00
30339;BME280;795;49.296;11.348;2023-05-09T00:43:19;96747.72;;;12.45;100.00
30339;BME280;795;49.296;11.348;2023-05-09T00:45:47;96742.00;;;12.48;100.00
30339;BME280;795;49.296;11.348;2023-05-09T00:48:15;96687.59;;;12.06;100.00
30339;BME280;795;49.296;11.348;2023-05-09T00:50:43;96740.50;;;12.38;100.00
30339;BME280;795;49.296;11.348;2023-05-09T00:53:10;96717.81;;;12.32;100.00
30339;BME280;795;49.296;11.348;2023-05-09T00:55:39;96684.22;;;12.20;100.00
30339;BME280;795;49.296;11.348;2023-05-09T00:58:06;96666.75;;;12.08;100.00
30339;BME280;795;49.296;11.348;2023-05-09T01:00:33;96720.78;;;12.45;100.00
30339;BME280;795;49.296;11.348;2023-05-09T01:03:00;96701.00;;;12.30;100.00
30339;BME280;795;49.296;11.348;2023-05-09T01:05:46;96721.31;;;12.41;100.00
30339;BME280;795;49.296;11.348;2023-05-09T01:08:53;96712.91;;;12.44;100.00
30339;BME280;795;49.296;11.348;2023-05-09T01:11:49;96695.91;;;12.35;100.00
30339;BME280;795;49.296;11.348;2023-05-09T01:15:05;96707.50;;;12.52;100.00
30339;BME280;795;49.296;11.348;2023-05-09T01:17:55;96701.94;;;12.53;100.00
30339;BME280;795;49.296;11.348;2023-05-09T01:20:50;96706.25;;;12.62;100.00
30339;BME280;795;49.296;11.348;2023-05-09T01:24:07;96674.38;;;12.43;100.00
30339;BME280;795;49.296;11.348;2023-05-09T01:27:36;96710.31;;;12.67;100.00
30339;BME280;795;49.296;11.348;2023-05-09T01:30:08;96673.69;;;12.41;100.00
30339;BME280;795;49.296;11.348;2023-05-09T01:32:41;96685.25;;;12.50;100.00
30339;BME280;795;49.296;11.348;2023-05-09T01:35:12;96706.09;;;12.64;100.00
30339;BME280;795;49.296;11.348;2023-05-09T01:37:48;96695.38;;;12.48;100.00
30339;BME280;795;49.296;11.348;2023-05-09T01:40:19;96708.97;;;12.62;100.00
30339;BME280;795;49.296;11.348;2023-05-09T01:43:07;96711.19;;;12.59;100.00
30339;BME280;795;49.296;11.348;2023-05-09T01:45:38;96643.84;;;12.20;100.00
30339;BME280;795;49.296;11.348;2023-05-09T01:48:09;96711.84;;;12.53;100.00
30339;BME280;795;49.296;11.348;2023-05-09T01:50:39;96635.59;;;12.14;100.00
30339;BME280;795;49.296;11.348;2023-05-09T01:53:10;96654.09;;;12.17;100.00
30339;BME280;795;49.296;11.348;2023-05-09T01:55:40;96689.72;;;12.35;100.00
30339;BME280;795;49.296;11.348;2023-05-09T01:58:10;96678.44;;;12.31;100.00
30339;BME280;795;49.296;11.348;2023-05-09T02:00:38;96633.28;;;12.03;100.00
30339;BME280;795;49.296;11.348;2023-05-09T02:03:07;96708.38;;;12.44;100.00
30339;BME280;795;49.296;11.348;2023-05-09T02:05:36;96692.22;;;12.36;100.00
30339;BME280;795;49.296;11.348;2023-05-09T02:08:04;96699.78;;;12.41;100.00
30339;BME280;795;49.296;11.348;2023-05-09T02:10:34;96696.63;;;12.37;100.00
30339;BME280;795;49.296;11.348;2023-05-09T02:13:03;96696.63;;;12.37;100.00
30339;BME280;795;49.296;11.348;2023-05-09T02:15:30;96691.75;;;12.33;100.00
30339;BME280;795;49.296;11.348;2023-05-09T02:20:27;96688.88;;;12.26;100.00
30339;BME280;795;49.296;11.348;2023-05-09T02:22:54;96646.22;;;11.99;100.00
30339;BME280;795;49.296;11.348;2023-05-09T02:25:21;96687.91;;;12.19;100.00
30339;BME280;795;49.296;11.348;2023-05-09T02:27:51;96684.72;;;12.16;100.00
30339;BME280;795;49.296;11.348;2023-05-09T02:30:25;96674.16;;;12.06;100.00
30339;BME280;795;49.296;11.348;2023-05-09T02:33:03;96679.84;;;12.11;100.00
30339;BME280;795;49.296;11.348;2023-05-09T02:35:34;96678.34;;;12.01;100.00
30339;BME280;795;49.296;11.348;2023-05-09T02:38:02;96663.22;;;11.99;100.00
30339;BME280;795;49.296;11.348;2023-05-09T02:40:30;96660.22;;;11.86;100.00
30339;BME280;795;49.296;11.348;2023-05-09T02:42:57;96668.44;;;11.93;100.00
30339;BME280;795;49.296;11.348;2023-05-09T02:45:24;96668.78;;;11.90;100.00
30339;BME280;795;49.296;11.348;2023-05-09T02:47:51;96678.22;;;11.94;100.00
30339;BME280;795;49.296;11.348;2023-05-09T02:50:18;96679.22;;;11.93;100.00
30339;BME280;795;49.296;11.348;2023-05-09T02:52:45;96635.50;;;11.67;100.00
30339;BME280;795;49.296;11.348;2023-05-09T02:55:12;96664.75;;;11.78;100.00
30339;BME280;795;49.296;11.348;2023-05-09T02:57:40;96672.84;;;11.86;100.00
30339;BME280;795;49.296;11.348;2023-05-09T03:00:08;96650.81;;;11.66;100.00
30339;BME280;795;49.296;11.348;2023-05-09T03:02:36;96640.56;;;11.46;100.00
30339;BME280;795;49.296;11.348;2023-05-09T03:05:04;96559.78;;;10.99;100.00
30339;BME280;795;49.296;11.348;2023-05-09T03:07:32;96644.59;;;11.42;100.00
30339;BME280;795;49.296;11.348;2023-05-09T03:09:58;96614.03;;;11.18;100.00
30339;BME280;795;49.296;11.348;2023-05-09T03:12:26;96638.22;;;11.18;100.00
30339;BME280;795;49.296;11.348;2023-05-09T03:14:52;96637.03;;;11.13;100.00
30339;BME280;795;49.296;11.348;2023-05-09T03:17:19;96639.56;;;11.22;100.00
30339;BME280;795;49.296;11.348;2023-05-09T03:19:49;96651.63;;;11.26;100.00
30339;BME280;795;49.296;11.348;2023-05-09T03:22:16;96610.00;;;11.06;100.00
30339;BME280;795;49.296;11.348;2023-05-09T03:24:43;96634.84;;;11.24;100.00
30339;BME280;795;49.296;11.348;2023-05-09T03:27:10;96638.72;;;11.30;100.00
30339;BME280;795;49.296;11.348;2023-05-09T03:29:37;96630.00;;;11.28;100.00
30339;BME280;795;49.296;11.348;2023-05-09T03:32:04;96664.41;;;11.49;100.00
30339;BME280;795;49.296;11.348;2023-05-09T03:34:31;96643.25;;;11.46;100.00
30339;BME280;795;49.296;11.348;2023-05-09T03:36:58;96598.25;;;11.23;100.00
30339;BME280;795;49.296;11.348;2023-05-09T03:39:25;96569.84;;;11.13;97.40
30339;BME280;795;49.296;11.348;2023-05-09T03:41:52;96632.34;;;11.55;95.42
30339;BME280;795;49.296;11.348;2023-05-09T03:44:19;96644.44;;;11.59;97.71
30339;BME280;795;49.296;11.348;2023-05-09T03:46:46;96630.66;;;11.46;97.69
30339;BME280;795;49.296;11.348;2023-05-09T03:49:13;96636.19;;;11.45;96.51
30339;BME280;795;49.296;11.348;2023-05-09T03:51:40;96643.56;;;11.51;97.82
30339;BME280;795;49.296;11.348;2023-05-09T03:54:08;96661.41;;;11.60;97.80
30339;BME280;795;49.296;11.348;2023-05-09T03:56:35;96629.78;;;11.46;98.15
30339;BME280;795;49.296;11.348;2023-05-09T03:59:02;96653.00;;;11.55;99.32
30339;BME280;795;49.296;11.348;2023-05-09T04:01:29;96636.03;;;11.46;99.07
30339;BME280;795;49.296;11.348;2023-05-09T04:03:56;96653.34;;;11.52;98.93
30339;BME280;795;49.296;11.348;2023-05-09T04:06:23;96630.16;;;11.34;99.19
30339;BME280;795;49.296;11.348;2023-05-09T04:08:51;96640.56;;;11.38;99.23
30339;BME280;795;49.296;11.348;2023-05-09T04:11:18;96649.81;;;11.43;99.86
30339;BME280;795;49.296;11.348;2023-05-09T04:13:45;96597.72;;;11.12;100.00
30339;BME280;795;49.296;11.348;2023-05-09T04:16:12;96632.00;;;11.34;100.00
30339;BME280;795;49.296;11.348;2023-05-09T04:18:39;96659.88;;;11.49;100.00
30339;BME280;795;49.296;11.348;2023-05-09T04:21:08;96635.72;;;11.33;100.00
30339;BME280;795;49.296;11.348;2023-05-09T04:23:35;96646.09;;;11.44;100.00
30339;BME280;795;49.296;11.348;2023-05-09T04:26:02;96658.72;;;11.52;100.00
30339;BME280;795;49.296;11.348;2023-05-09T04:28:29;96613.53;;;11.23;100.00
30339;BME280;795;49.296;11.348;2023-05-09T04:30:56;96615.19;;;11.32;100.00
30339;BME280;795;49.296;11.348;2023-05-09T04:33:23;96661.91;;;11.55;100.00
30339;BME280;795;49.296;11.348;2023-05-09T04:35:50;96658.38;;;11.55;99.85
30339;BME280;795;49.296;11.348;2023-05-09T04:38:17;96634.34;;;11.45;100.00
30339;BME280;795;49.296;11.348;2023-05-09T04:40:44;96650.47;;;11.61;100.00
30339;BME280;795;49.296;11.348;2023-05-09T04:43:11;96638.88;;;11.61;100.00
30339;BME280;795;49.296;11.348;2023-05-09T04:45:38;96609.31;;;11.45;100.00
30339;BME280;795;49.296;11.348;2023-05-09T04:48:06;96640.41;;;11.71;100.00
30339;BME280;795;49.296;11.348;2023-05-09T04:50:33;96644.09;;;11.70;100.00
30339;BME280;795;49.296;11.348;2023-05-09T04:53:00;96645.97;;;11.70;100.00
30339;BME280;795;49.296;11.348;2023-05-09T04:55:27;96634.66;;;11.66;100.00
30339;BME280;795;49.296;11.348;2023-05-09T04:57:53;96618.72;;;11.57;100.00
30339;BME280;795;49.296;11.348;2023-05-09T05:00:20;96646.97;;;11.77;100.00
30339;BME280;795;49.296;11.348;2023-05-09T05:02:48;96626.78;;;11.65;100.00
30339;BME280;795;49.296;11.348;2023-05-09T05:05:15;96650.13;;;11.72;100.00
30339;BME280;795;49.296;11.348;2023-05-09T05:07:42;96660.06;;;11.88;100.00
30339;BME280;795;49.296;11.348;2023-05-09T05:10:09;96635.31;;;11.84;100.00
30339;BME280;795;49.296;11.348;2023-05-09T05:12:36;96628.63;;;11.80;100.00
30339;BME280;795;49.296;11.348;2023-05-09T05:15:04;96591.28;;;11.77;100.00
30339;BME280;795;49.296;11.348;2023-05-09T05:17:31;96651.53;;;12.23;100.00
30339;BME280;795;49.296;11.348;2023-05-09T05:19:59;96648.16;;;12.29;100.00
30339;BME280;795;49.296;11.348;2023-05-09T05:22:26;96636.78;;;12.11;100.00
30339;BME280;795;49.296;11.348;2023-05-09T05:24:52;96643.47;;;12.23;100.00
30339;BME280;795;49.296;11.348;2023-05-09T05:27:19;96623.50;;;12.10;100.00
30339;BME280;795;49.296;11.348;2023-05-09T05:29:46;96626.13;;;12.26;100.00
30339;BME280;795;49.296;11.348;2023-05-09T05:32:13;96653.13;;;12.48;100.00
30339;BME280;795;49.296;11.348;2023-05-09T05:34:40;96644.22;;;12.48;98.05
30339;BME280;795;49.296;11.348;2023-05-09T05:37:07;96647.31;;;12.68;97.86
30339;BME280;795;49.296;11.348;2023-05-09T05:39:34;96650.09;;;12.82;96.50
30339;BME280;795;49.296;11.348;2023-05-09T05:42:01;96659.66;;;12.93;95.01
30339;BME280;795;49.296;11.348;2023-05-09T05:44:28;96661.94;;;13.12;92.42
30339;BME280;795;49.296;11.348;2023-05-09T05:46:55;96647.91;;;13.16;91.34
30339;BME280;795;49.296;11.348;2023-05-09T05:49:22;96668.66;;;13.39;89.89
30339;BME280;795;49.296;11.348;2023-05-09T05:51:50;96650.38;;;13.49;88.18
30339;BME280;795;49.296;11.348;2023-05-09T05:54:17;96623.53;;;13.10;85.36
30339;BME280;795;49.296;11.348;2023-05-09T05:56:44;96504.25;;;12.40;89.37
30339;BME280;795;49.296;11.348;2023-05-09T05:59:11;96610.41;;;12.99;87.97
30339;BME280;795;49.296;11.348;2023-05-09T06:01:39;96623.84;;;13.15;85.80
30339;BME280;795;49.296;11.348;2023-05-09T06:04:06;96641.75;;;13.00;87.78
30339;BME280;795;49.296;11.348;2023-05-09T06:06:33;96613.88;;;12.85;88.59
30339;BME280;795;49.296;11.348;2023-05-09T06:09:00;96639.50;;;13.11;88.12
30339;BME280;795;49.296;11.348;2023-05-09T06:11:27;96637.88;;;13.25;84.61
30339;BME280;795;49.296;11.348;2023-05-09T06:13:54;96604.19;;;13.29;84.33
30339;BME280;795;49.296;11.348;2023-05-09T06:16:21;96605.19;;;13.65;81.36
30339;BME280;795;49.296;11.348;2023-05-09T06:18:48;96629.84;;;14.29;78.85
30339;BME280;795;49.296;11.348;2023-05-09T06:21:16;96593.31;;;14.62;76.66
30339;BME280;795;49.296;11.348;2023-05-09T06:23:43;96612.69;;;15.44;70.77
30339;BME280;795;49.296;11.348;2023-05-09T06:26:30;96632.69;;;15.91;63.75
30339;BME280;795;49.296;11.348;2023-05-09T06:28:56;96605.50;;;15.72;65.74
30339;BME280;795;49.296;11.348;2023-05-09T06:31:24;96589.59;;;15.90;63.59
30339;BME280;795;49.296;11.348;2023-05-09T06:33:52;96629.06;;;15.78;63.11
30339;BME280;795;49.296;11.348;2023-05-09T06:36:19;96627.91;;;15.66;62.34
30339;BME280;795;49.296;11.348;2023-05-09T06:38:46;96625.78;;;15.61;61.77
30339;BME280;795;49.296;11.348;2023-05-09T06:41:13;96617.22;;;15.15;63.43
30339;BME280;795;49.296;11.348;2023-05-09T06:43:40;96585.75;;;15.36;61.98
30339;BME280;795;49.296;11.348;2023-05-09T06:46:07;96576.38;;;15.32;63.19
30339;BME280;795;49.296;11.348;2023-05-09T06:48:34;96606.09;;;15.46;61.23
30339;BME280;795;49.296;11.348;2023-05-09T06:51:01;96604.16;;;15.61;61.73
30339;BME280;795;49.296;11.348;2023-05-09T06:53:28;96608.47;;;16.11;60.00
30339;BME280;795;49.296;11.348;2023-05-09T06:55:55;96608.97;;;16.28;59.54
30339;BME280;795;49.296;11.348;2023-05-09T06:58:23;96590.78;;;15.81;60.59
30339;BME280;795;49.296;11.348;2023-05-09T07:00:50;96589.78;;;15.88;58.41
30339;BME280;795;49.296;11.348;2023-05-09T07:03:17;96591.28;;;15.91;59.39
30339;BME280;795;49.296;11.348;2023-05-09T07:05:44;96563.47;;;15.76;59.31
30339;BME280;795;49.296;11.348;2023-05-09T07:08:11;96587.22;;;16.08;59.01
30339;BME280;795;49.296;11.348;2023-05-09T07:10:38;96580.31;;;16.06;59.60
30339;BME280;795;49.296;11.348;2023-05-09T07:13:05;96559.81;;;16.24;58.58
30339;BME280;795;49.296;11.348;2023-05-09T07:15:32;96549.69;;;16.05;59.01
30339;BME280;795;49.296;11.348;2023-05-09T07:18:08;96561.69;;;16.30;58.23
30339;BME280;795;49.296;11.348;2023-05-09T07:20:35;96562.28;;;16.19;58.89
30339;BME280;795;49.296;11.348;2023-05-09T07:23:03;96588.78;;;16.65;57.89
30339;BME280;795;49.296;11.348;2023-05-09T07:25:32;96574.91;;;16.46;58.56
30339;BME280;795;49.296;11.348;2023-05-09T07:27:59;96581.22;;;17.07;57.24
30339;BME280;795;49.296;11.348;2023-05-09T07:30:26;96535.41;;;16.72;56.51
30339;BME280;795;49.296;11.348;2023-05-09T07:32:53;96561.34;;;16.81;55.37
30339;BME280;795;49.296;11.348;2023-05-09T07:35:20;96573.50;;;17.04;55.61
30339;BME280;795;49.296;11.348;2023-05-09T07:37:47;96547.22;;;17.11;56.06
30339;BME280;795;49.296;11.348;2023-05-09T07:40:14;96565.31;;;16.85;56.70
30339;BME280;795;49.296;11.348;2023-05-09T07:42:41;96543.59;;;16.85;56.05
30339;BME280;795;49.296;11.348;2023-05-09T07:45:15;96495.38;;;16.74;56.97
30339;BME280;795;49.296;11.348;2023-05-09T07:47:43;96557.09;;;17.58;55.68
30339;BME280;795;49.296;11.348;2023-05-09T07:50:10;96524.84;;;17.03;55.05
30339;BME280;795;49.296;11.348;2023-05-09T07:52:37;96505.03;;;16.96;53.92
30339;BME280;795;49.296;11.348;2023-05-09T07:55:04;96546.63;;;17.36;53.40
30339;BME280;795;49.296;11.348;2023-05-09T07:57:32;96537.88;;;17.53;53.71
30339;BME280;795;49.296;11.348;2023-05-09T07:59:59;96507.56;;;17.76;52.61
30339;BME280;795;49.296;11.348;2023-05-09T08:03:42;96515.50;;;17.51;53.96
30339;BME280;795;49.296;11.348;2023-05-09T08:06:09;96528.88;;;17.79;54.33
30339;BME280;795;49.296;11.348;2023-05-09T08:08:36;96528.00;;;18.05;54.13
30339;BME280;795;49.296;11.348;2023-05-09T08:11:04;96531.63;;;18.56;52.23
30339;BME280;795;49.296;11.348;2023-05-09T08:13:32;96491.22;;;18.66;51.34
30339;BME280;795;49.296;11.348;2023-05-09T08:16:00;96486.97;;;18.26;49.64
30339;BME280;795;49.296;11.348;2023-05-09T08:21:04;96472.91;;;17.32;52.92
30339;BME280;795;49.296;11.348;2023-05-09T08:23:31;96505.13;;;18.32;51.07
30339;BME280;795;49.296;11.348;2023-05-09T08:25:58;96455.53;;;17.85;49.89
30339;BME280;795;49.296;11.348;2023-05-09T08:28:26;96512.78;;;18.61;50.29
30339;BME280;795;49.296;11.348;2023-05-09T08:30:55;96497.47;;;18.16;49.55
30339;BME280;795;49.296;11.348;2023-05-09T08:33:23;96390.53;;;18.35;49.22
30339;BME280;795;49.296;11.348;2023-05-09T08:35:52;96425.09;;;18.66;48.56
30339;BME280;795;49.296;11.348;2023-05-09T08:38:20;96413.53;;;17.95;47.84
30339;BME280;795;49.296;11.348;2023-05-09T08:40:47;96470.06;;;18.99;47.94
30339;BME280;795;49.296;11.348;2023-05-09T08:43:16;96472.94;;;19.42;47.76
30339;BME280;795;49.296;11.348;2023-05-09T08:45:53;96447.97;;;19.20;47.81
30339;BME280;795;49.296;11.348;2023-05-09T08:48:22;96433.38;;;19.33;48.12
30339;BME280;795;49.296;11.348;2023-05-09T08:50:50;96446.38;;;19.31;47.21
30339;BME280;795;49.296;11.348;2023-05-09T08:53:19;96479.91;;;19.81;47.28
30339;BME280;795;49.296;11.348;2023-05-09T08:55:49;96482.00;;;20.88;47.12
30339;BME280;795;49.296;11.348;2023-05-09T08:58:18;96475.84;;;20.63;44.61
30339;BME280;795;49.296;11.348;2023-05-09T09:00:47;96464.31;;;20.06;45.99
30339;BME280;795;49.296;11.348;2023-05-09T09:03:16;96460.94;;;20.29;47.45
30339;BME280;795;49.296;11.348;2023-05-09T09:05:46;96447.47;;;20.34;45.93
30339;BME280;795;49.296;11.348;2023-05-09T09:08:14;96412.63;;;20.00;45.10
30339;BME280;795;49.296;11.348;2023-05-09T09:10:44;96431.38;;;20.74;45.95
30339;BME280;795;49.296;11.348;2023-05-09T09:13:16;96454.16;;;20.49;43.45
30339;BME280;795;49.296;11.348;2023-05-09T09:15:48;96435.19;;;20.43;43.63
30339;BME280;795;49.296;11.348;2023-05-09T09:18:29;96420.44;;;20.92;43.84
30339;BME280;795;49.296;11.348;2023-05-09T09:21:12;96419.84;;;21.43;44.65
30339;BME280;795;49.296;11.348;2023-05-09T09:23:44;96427.78;;;21.44;43.88
30339;BME280;795;49.296;11.348;2023-05-09T09:26:13;96428.25;;;21.41;44.11
30339;BME280;795;49.296;11.348;2023-05-09T09:28:42;96397.00;;;22.07;43.93
30339;BME280;795;49.296;11.348;2023-05-09T09:33:50;96445.09;;;22.42;40.40
30339;BME280;795;49.296;11.348;2023-05-09T09:36:29;96439.78;;;22.13;41.59
30339;BME280;795;49.296;11.348;2023-05-09T09:39:01;96403.06;;;21.16;42.81
30339;BME280;795;49.296;11.348;2023-05-09T09:41:36;96438.56;;;21.39;44.28
30339;BME280;795;49.296;11.348;2023-05-09T09:44:17;96403.69;;;21.64;42.50
30339;BME280;795;49.296;11.348;2023-05-09T09:46:54;96388.44;;;21.22;43.56
30339;BME280;795;49.296;11.348;2023-05-09T09:49:25;96371.47;;;21.66;41.25
30339;BME280;795;49.296;11.348;2023-05-09T09:51:57;96400.72;;;21.54;41.18
30339;BME280;795;49.296;11.348;2023-05-09T09:54:28;96411.84;;;22.62;40.97
30339;BME280;795;49.296;11.348;2023-05-09T09:56:54;96384.06;;;22.98;38.35
30339;BME280;795;49.296;11.348;2023-05-09T09:59:25;96368.94;;;22.11;35.85
30339;BME280;795;49.296;11.348;2023-05-09T10:02:02;96393.81;;;21.75;37.01
30339;BME280;795;49.296;11.348;2023-05-09T10:04:38;96375.22;;;22.23;36.86
30339;BME280;795;49.296;11.348;2023-05-09T10:07:09;96393.53;;;22.79;36.87
30339;BME280;795;49.296;11.348;2023-05-09T10:09:41;96355.31;;;22.56;36.49
30339;BME280;795;49.296;11.348;2023-05-09T10:12:09;96370.56;;;23.42;35.81
30339;BME280;795;49.296;11.348;2023-05-09T10:14:41;96341.06;;;23.16;32.38
30339;BME280;795;49.296;11.348;2023-05-09T10:17:13;96370.59;;;22.80;34.23
30339;BME280;795;49.296;11.348;2023-05-09T10:19:48;96346.41;;;22.32;34.53
30339;BME280;795;49.296;11.348;2023-05-09T10:22:17;96351.50;;;22.85;34.15
30339;BME280;795;49.296;11.348;2023-05-09T10:25:16;96296.47;;;21.97;34.22
30339;BME280;795;49.296;11.348;2023-05-09T10:27:47;96333.41;;;22.39;33.38
30339;BME280;795;49.296;11.348;2023-05-09T10:30:23;96326.38;;;23.05;32.12
30339;BME280;795;49.296;11.348;2023-05-09T10:33:04;96338.13;;;23.72;34.40
30339;BME280;795;49.296;11.348;2023-05-09T10:35:40;96350.88;;;23.45;32.39
30339;BME280;795;49.296;11.348;2023-05-09T10:38:11;96342.75;;;23.88;31.08
30339;BME280;795;49.296;11.348;2023-05-09T10:40:46;96310.28;;;23.80;30.24
30339;BME280;795;49.296;11.348;2023-05-09T10:43:13;96313.94;;;23.69;29.88
30339;BME280;795;49.296;11.348;2023-05-09T10:45:41;96280.69;;;23.82;28.32
30339;BME280;795;49.296;11.348;2023-05-09T10:48:10;96303.53;;;24.09;27.90
30339;BME280;795;49.296;11.348;2023-05-09T10:50:38;96317.53;;;23.91;28.52
30339;BME280;795;49.296;11.348;2023-05-09T10:53:08;96275.97;;;23.56;30.67
30339;BME280;795;49.296;11.348;2023-05-09T10:58:34;96304.31;;;24.53;28.55
30339;BME280;795;49.296;11.348;2023-05-09T11:01:04;96311.13;;;25.04;28.27
30339;BME280;795;49.296;11.348;2023-05-09T11:03:57;96306.13;;;24.42;29.43
30339;BME280;795;49.296;11.348;2023-05-09T11:06:51;96294.13;;;24.49;27.24
30339;BME280;795;49.296;11.348;2023-05-09T11:09:34;96284.53;;;24.24;29.25
30339;BME280;795;49.296;11.348;2023-05-09T11:14:43;96286.44;;;25.46;29.20
30339;BME280;795;49.296;11.348;2023-05-09T11:22:39;96261.53;;;25.21;27.96
30339;BME280;795;49.296;11.348;2023-05-09T11:25:11;96261.09;;;24.97;27.79
30339;BME280;795;49.296;11.348;2023-05-09T11:27:45;96250.53;;;25.21;28.03
30339;BME280;795;49.296;11.348;2023-05-09T11:30:17;96259.38;;;25.28;29.02
30339;BME280;795;49.296;11.348;2023-05-09T11:32:51;96256.41;;;24.66;28.52
30339;BME280;795;49.296;11.348;2023-05-09T11:35:25;96253.84;;;25.23;28.30
30339;BME280;795;49.296;11.348;2023-05-09T11:38:05;96238.94;;;24.50;29.03
30339;BME280;795;49.296;11.348;2023-05-09T11:40:33;96225.47;;;24.75;29.33
30339;BME280;795;49.296;11.348;2023-05-09T11:43:01;96222.81;;;24.54;29.33
30339;BME280;795;49.296;11.348;2023-05-09T11:45:31;96234.84;;;24.53;28.98
30339;BME280;795;49.296;11.348;2023-05-09T11:47:59;96238.06;;;24.45;29.00
30339;BME280;795;49.296;11.348;2023-05-09T11:50:27;96233.28;;;24.62;28.29
30339;BME280;795;49.296;11.348;2023-05-09T11:52:54;96232.94;;;24.80;28.01
30339;BME280;795;49.296;11.348;2023-05-09T11:55:21;96222.91;;;24.69;27.93
30339;BME280;795;49.296;11.348;2023-05-09T11:57:52;96225.13;;;24.40;28.55
30339;BME280;795;49.296;11.348;2023-05-09T12:00:23;96175.88;;;24.02;28.66
30339;BME280;795;49.296;11.348;2023-05-09T12:02:52;96210.66;;;25.13;28.46
30339;BME280;795;49.296;11.348;2023-05-09T12:05:21;96206.78;;;26.18;26.48
30339;BME280;795;49.296;11.348;2023-05-09T12:07:49;96180.09;;;25.51;28.10
30339;BME280;795;49.296;11.348;2023-05-09T12:10:22;96160.00;;;26.28;27.27
30339;BME280;795;49.296;11.348;2023-05-09T12:12:51;96128.06;;;26.22;27.97
30339;BME280;795;49.296;11.348;2023-05-09T12:15:21;96172.63;;;27.25;26.26
30339;BME280;795;49.296;11.348;2023-05-09T12:18:01;96117.38;;;25.38;27.07
30339;BME280;795;49.296;11.348;2023-05-09T12:20:59;96168.53;;;25.02;27.02
30339;BME280;795;49.296;11.348;2023-05-09T12:23:27;96148.22;;;25.45;27.52
30339;BME280;795;49.296;11.348;2023-05-09T12:25:56;96179.16;;;25.98;27.38
30339;BME280;795;49.296;11.348;2023-05-09T12:28:25;96187.28;;;25.52;27.84
30339;BME280;795;49.296;11.348;2023-05-09T12:30:53;96151.88;;;25.76;28.07
30339;BME280;795;49.296;11.348;2023-05-09T12:33:21;96176.25;;;25.47;28.45
30339;BME280;795;49.296;11.348;2023-05-09T12:36:20;96171.22;;;25.39;28.24
30339;BME280;795;49.296;11.348;2023-05-09T12:38:56;96150.16;;;25.03;29.73
30339;BME280;795;49.296;11.348;2023-05-09T12:41:23;96130.63;;;24.63;28.85
30339;BME280;795;49.296;11.348;2023-05-09T12:44:07;96154.19;;;25.37;28.47
30339;BME280;795;49.296;11.348;2023-05-09T12:46:34;96143.38;;;25.21;28.66
30339;BME280;795;49.296;11.348;2023-05-09T12:49:03;96146.84;;;25.48;28.63
30339;BME280;795;49.296;11.348;2023-05-09T12:51:31;96109.78;;;25.70;29.54
30339;BME280;795;49.296;11.348;2023-05-09T12:54:02;96110.75;;;25.39;29.41
30339;BME280;795;49.296;11.348;2023-05-09T12:56:33;96105.94;;;25.66;29.39
30339;BME280;795;49.296;11.348;2023-05-09T12:59:00;96098.59;;;25.25;29.78
30339;BME280;795;49.296;11.348;2023-05-09T13:01:28;96114.53;;;26.10;29.20
30339;BME280;795;49.296;11.348;2023-05-09T13:04:04;96102.09;;;25.62;29.11
30339;BME280;795;49.296;11.348;2023-05-09T13:06:33;96108.97;;;25.65;27.99
30339;BME280;795;49.296;11.348;2023-05-09T13:09:03;96085.69;;;26.28;28.38
30339;BME280;795;49.296;11.348;2023-05-09T13:11:31;96123.34;;;26.07;29.33
30339;BME280;795;49.296;11.348;2023-05-09T13:13:59;96070.22;;;26.07;29.28
30339;BME280;795;49.296;11.348;2023-05-09T13:16:26;96090.78;;;25.54;30.32
30339;BME280;795;49.296;11.348;2023-05-09T13:18:53;96072.56;;;25.38;30.68
30339;BME280;795;49.296;11.348;2023-05-09T13:21:20;96098.19;;;25.58;30.50
30339;BME280;795;49.296;11.348;2023-05-09T13:23:47;96059.22;;;25.82;30.06
30339;BME280;795;49.296;11.348;2023-05-09T13:26:15;96029.84;;;25.10;29.22
30339;BME280;795;49.296;11.348;2023-05-09T13:28:42;96084.78;;;25.10;31.29
30339;BME280;795;49.296;11.348;2023-05-09T13:31:09;96081.41;;;24.93;31.81
30339;BME280;795;49.296;11.348;2023-05-09T13:33:36;96026.69;;;23.98;32.85
30339;BME280;795;49.296;11.348;2023-05-09T13:36:04;96072.69;;;24.22;32.41
30339;BME280;795;49.296;11.348;2023-05-09T13:38:32;96069.13;;;24.64;32.28
30339;BME280;795;49.296;11.348;2023-05-09T13:41:03;96024.03;;;24.91;31.83
30339;BME280;795;49.296;11.348;2023-05-09T13:43:30;96006.66;;;24.81;30.64